Elm Grove, LA

8:53 AM CDT on March 29, 2015 (GMT -0500)
Barksdale Air Force Base | | Change Station
CLOSE
Current Station
Airport
Location: Barksdale AFB,
Elevation: 167 ft
Nearby Weather Stations

Elev 167 ft 32.50 °N, 93.66 °W | Updated 55 minutes ago

Overcast
Overcast
51 °F
Feels Like 51 °F
N
5
Wind Variable Wind from SE

Today
High -- | Low -- °F
--% Chance of Precip.
Yesterday
High -- | Low -- °F
Precip. -- in
7:06 AM 7:31 PM
Waxing Gibbous, 71% visible
Pressure 30.17 in
Visibility 10.0 miles
Clouds Overcast 1100 ft
Dew Point 44 °F
Humidity 77%
Rainfall 0.00 in
Snow Depth Not available.
UV 0 out of 12
Pollen 11.10 out of 12
Air Quality Not available.
Flu Activity Not available.
METAR KBAD 291258Z AUTO 14004KT 10SM OVC011 11/07 A3016 RMK AO2 SLP216 T01050066

More Conditions Fewer Conditions

Pressure 30.17 in
Visibility 10.0 miles
Clouds Overcast 1100 ft
Dew Point 44 °F
Humidity 77%
Rainfall 0.00 in
Snow Depth Not available.
UV 0 out of 12
Pollen 11.10 out of 12
Air Quality Not available.
Flu Activity Not available.
METAR KBAD 291258Z AUTO 14004KT 10SM OVC011 11/07 A3016 RMK AO2 SLP216 T01050066

More Conditions Fewer Conditions

10-Day Weather Forecast

Almanac

Astronomy

Mar. 29, 2015 Rise Set
Actual Time
Civil Twilight
Nautical Twilight
Astronomical Twilight
Moon
Length of Visible Light
Length of Day
Tomorrow will be .
, % of the Moon is Illuminated

Today's Extremes

State Highs State Lows

Community

WunderPhotos

Upload Photos

1,809,234 photos uploaded!

WunderBlogs® & News

Nearby

Air Quality

  Air Quality AQ Index Pollutant
Not available.

Snow Depth

Station Depth Elevation

Earthquake Activity

City Distance Mag. Time & Date
Minimum magnitude displayed is 2.5.

Coastal Water Temperatures

Place Temperature

Stations

Nearby Weather Stations

Station Location Temp. Windchill Dew Point Humidity Wind Precip. Elev Updated Type